Time,TemperatureF,DewpointF,PressureIn,WindDirection,WindDirectionDegrees,WindSpeedMPH,WindSpeedGustMPH,Humidity,HourlyPrecipIn,Conditions,Clouds,dailyrainin,SoftwareType,DateUTC
2013-02-28 00:00:00,26.0,7.0,30.19,WNW,287,0.0,-999.0,45,-99.99,,,0.00,weatherlink.com 1.10,2013-02-28 07:00:00,
2013-02-28 00:15:00,24.8,8.0,30.21,WNW,287,0.0,-999.0,48,-99.99,,,0.00,weatherlink.com 1.10,2013-02-28 07:15:00,
2013-02-28 00:30:00,24.4,7.0,30.21,WNW,287,0.0,-999.0,48,-99.99,,,0.00,weatherlink.com 1.10,2013-02-28 07:30:00,
2013-02-28 00:45:00,22.5,7.0,30.22,WNW,287,2.0,-999.0,51,-99.99,,,0.00,weatherlink.com 1.10,2013-02-28 07:45:00,
2013-02-28 01:01:00,19.4,7.0,30.24,WNW,287,0.0,-999.0,58,-99.99,,,0.00,weatherlink.com 1.10,2013-02-28 08:01:00,
2013-02-28 01:16:00,19.5,7.0,30.25,WNW,287,0.0,-999.0,59,-99.99,,,0.00,weatherlink.com 1.10,2013-02-28 08:16:00,
2013-02-28 01:31:00,19.7,7.0,30.25,WNW,287,0.0,-999.0,59,-99.99,,,0.00,weatherlink.com 1.10,2013-02-28 08:31:00,
2013-02-28 01:46:00,18.3,7.0,30.25,WNW,287,0.0,-999.0,61,-99.99,,,0.00,weatherlink.com 1.10,2013-02-28 08:46:00,
2013-02-28 02:01:00,16.7,6.0,30.26,WNW,287,0.0,-999.0,62,-99.99,,,0.00,weatherlink.com 1.10,2013-02-28 09:01:00,
2013-02-28 02:16:00,15.9,6.0,30.27,WNW,287,1.0,-999.0,66,-99.99,,,0.00,weatherlink.com 1.10,2013-02-28 09:16:00,
2013-02-28 02:31:00,15.6,6.0,30.28,WNW,287,0.0,-999.0,66,-99.99,,,0.00,weatherlink.com 1.10,2013-02-28 09:31:00,
2013-02-28 02:46:00,15.6,7.0,30.28,WNW,287,2.0,-999.0,68,-99.99,,,0.00,weatherlink.com 1.10,2013-02-28 09:46:00,
2013-02-28 03:01:00,15.2,6.0,30.28,WNW,287,0.0,-999.0,68,-99.99,,,0.00,weatherlink.com 1.10,2013-02-28 10:01:00,
2013-02-28 03:16:00,15.1,6.0,30.28,WNW,287,0.0,-999.0,68,-99.99,,,0.00,weatherlink.com 1.10,2013-02-28 10:16:00,
2013-02-28 03:31:00,15.6,7.0,30.28,WNW,287,2.0,-999.0,68,-99.99,,,0.00,weatherlink.com 1.10,2013-02-28 10:31:00,
2013-02-28 03:46:00,14.4,6.0,30.28,WNW,287,2.0,-999.0,68,-99.99,,,0.00,weatherlink.com 1.10,2013-02-28 10:46:00,
2013-02-28 04:01:00,14.1,6.0,30.30,WNW,287,0.0,-999.0,70,-99.99,,,0.00,weatherlink.com 1.10,2013-02-28 11:01:00,
2013-02-28 04:16:00,14.1,6.0,30.30,WNW,287,0.0,-999.0,70,-99.99,,,0.00,weatherlink.com 1.10,2013-02-28 11:16:00,
2013-02-28 04:31:00,14.4,6.0,30.31,WNW,287,1.0,-999.0,70,-99.99,,,0.00,weatherlink.com 1.10,2013-02-28 11:31:00,
2013-02-28 04:46:00,14.4,6.0,30.31,WNW,287,0.0,-999.0,69,-99.99,,,0.00,weatherlink.com 1.10,2013-02-28 11:46:00,
2013-02-28 05:01:00,13.8,5.0,30.31,WNW,287,2.0,-999.0,69,-99.99,,,0.00,weatherlink.com 1.10,2013-02-28 12:01:00,
2013-02-28 05:16:00,13.1,5.0,30.32,WNW,287,2.0,-999.0,70,-99.99,,,0.00,weatherlink.com 1.10,2013-02-28 12:16:00,
2013-02-28 05:31:00,13.1,5.0,30.35,WNW,287,3.0,-999.0,70,-99.99,,,0.00,weatherlink.com 1.10,2013-02-28 12:31:00,
2013-02-28 05:46:00,12.1,4.0,30.36,WNW,287,0.0,-999.0,71,-99.99,,,0.00,weatherlink.com 1.10,2013-02-28 12:46:00,
2013-02-28 06:01:00,12.1,4.0,30.37,WNW,287,0.0,-999.0,71,-99.99,,,0.00,weatherlink.com 1.10,2013-02-28 13:01:00,
2013-02-28 06:16:00,11.7,4.0,30.37,WNW,287,3.0,-999.0,72,-99.99,,,0.00,weatherlink.com 1.10,2013-02-28 13:16:00,
2013-02-28 06:31:00,11.1,4.0,30.40,WNW,287,3.0,-999.0,73,-99.99,,,0.00,weatherlink.com 1.10,2013-02-28 13:31:00,
2013-02-28 06:46:00,11.9,5.0,30.42,WNW,287,1.0,-999.0,73,-99.99,,,0.00,weatherlink.com 1.10,2013-02-28 13:46:00,
2013-02-28 07:01:00,12.3,5.0,30.41,WNW,287,2.0,-999.0,73,-99.99,,,0.00,weatherlink.com 1.10,2013-02-28 14:01:00,
2013-02-28 07:16:00,14.0,6.0,30.42,WNW,287,2.0,-999.0,71,-99.99,,,0.00,weatherlink.com 1.10,2013-02-28 14:16:00,
2013-02-28 07:31:00,16.1,8.0,30.43,WNW,287,0.0,-999.0,69,-99.99,,,0.00,weatherlink.com 1.10,2013-02-28 14:31:00,
2013-02-28 07:46:00,18.6,8.0,30.42,WNW,287,0.0,-999.0,63,-99.99,,,0.00,weatherlink.com 1.10,2013-02-28 14:46:00,
2013-02-28 08:02:00,20.3,8.0,30.41,WNW,287,5.0,-999.0,60,-99.99,,,0.00,weatherlink.com 1.10,2013-02-28 15:02:00,
2013-02-28 08:17:00,21.9,8.0,30.39,WNW,287,4.0,-999.0,55,-99.99,,,0.00,weatherlink.com 1.10,2013-02-28 15:17:00,
2013-02-28 08:33:00,23.9,9.0,30.37,WNW,287,2.0,-999.0,54,-99.99,,,0.00,weatherlink.com 1.10,2013-02-28 15:33:00,
2013-02-28 08:48:00,26.1,9.0,30.37,WNW,287,0.0,-999.0,49,-99.99,,,0.00,weatherlink.com 1.10,2013-02-28 15:48:00,
2013-02-28 09:02:00,29.7,10.0,30.34,WNW,287,0.0,-999.0,43,-99.99,,,0.00,weatherlink.com 1.10,2013-02-28 16:02:00,
2013-02-28 09:19:00,30.7,8.0,30.33,WNW,287,0.0,-999.0,39,-99.99,,,0.00,weatherlink.com 1.10,2013-02-28 16:19:00,
2013-02-28 09:33:00,30.7,9.0,30.32,WNW,287,1.0,-999.0,40,-99.99,,,0.00,weatherlink.com 1.10,2013-02-28 16:33:00,
2013-02-28 09:49:00,31.6,9.0,30.32,WNW,286,5.0,-999.0,39,-99.99,,,0.00,weatherlink.com 1.10,2013-02-28 16:49:00,
2013-02-28 10:03:00,33.1,8.0,30.31,WNW,286,2.0,-999.0,35,-99.99,,,0.00,weatherlink.com 1.10,2013-02-28 17:03:00,
2013-02-28 10:18:00,34.7,9.0,30.32,WNW,286,2.0,-999.0,34,-99.99,,,0.00,weatherlink.com 1.10,2013-02-28 17:18:00,
2013-02-28 10:33:00,34.0,8.0,30.32,SW,233,0.0,-999.0,33,-99.99,,,0.00,weatherlink.com 1.10,2013-02-28 17:33:00,
2013-02-28 10:49:00,35.5,7.0,30.31,SW,216,0.0,-999.0,31,-99.99,,,0.00,weatherlink.com 1.10,2013-02-28 17:49:00,
2013-02-28 11:04:00,36.5,5.0,30.31,SW,229,0.0,-999.0,27,-99.99,,,0.00,weatherlink.com 1.10,2013-02-28 18:04:00,
2013-02-28 11:19:00,36.8,6.0,30.32,SW,229,5.0,-999.0,27,-99.99,,,0.00,weatherlink.com 1.10,2013-02-28 18:19:00,
2013-02-28 11:34:00,37.8,6.0,30.31,SSW,195,0.0,-999.0,26,-99.99,,,0.00,weatherlink.com 1.10,2013-02-28 18:34:00,
2013-02-28 11:49:00,38.3,5.0,30.30,SW,235,4.0,-999.0,25,-99.99,,,0.00,weatherlink.com 1.10,2013-02-28 18:49:00,
2013-02-28 12:04:00,39.2,6.0,30.28,WSW,255,10.0,-999.0,25,-99.99,,,0.00,weatherlink.com 1.10,2013-02-28 19:04:00,
2013-02-28 12:19:00,40.1,8.0,30.33,SW,236,7.0,-999.0,26,-99.99,,,0.00,weatherlink.com 1.10,2013-02-28 19:19:00,
2013-02-28 12:34:00,41.1,8.0,30.31,SW,225,10.0,-999.0,25,-99.99,,,0.00,weatherlink.com 1.10,2013-02-28 19:34:00,
2013-02-28 12:49:00,42.8,7.0,30.28,SW,231,1.0,-999.0,23,-99.99,,,0.00,weatherlink.com 1.10,2013-02-28 19:49:00,
2013-02-28 13:04:00,44.2,7.0,30.27,SSW,212,4.0,-999.0,22,-99.99,,,0.00,weatherlink.com 1.10,2013-02-28 20:04:00,
2013-02-28 13:19:00,46.1,6.0,30.26,SW,234,7.0,-999.0,19,-99.99,,,0.00,weatherlink.com 1.10,2013-02-28 20:19:00,
2013-02-28 13:34:00,46.4,5.0,30.25,WSW,247,5.0,-999.0,18,-99.99,,,0.00,weatherlink.com 1.10,2013-02-28 20:34:00,
2013-02-28 13:49:00,47.9,2.0,30.23,NW,308,9.0,-999.0,15,-99.99,,,0.00,weatherlink.com 1.10,2013-02-28 20:49:00,
2013-02-28 14:04:00,48.5,3.0,30.23,NNW,327,12.0,-999.0,15,-99.99,,,0.00,weatherlink.com 1.10,2013-02-28 21:04:00,
2013-02-28 14:19:00,47.9,2.0,30.24,West,276,15.0,-999.0,15,-99.99,,,0.00,weatherlink.com 1.10,2013-02-28 21:19:00,
2013-02-28 14:35:00,47.6,3.0,30.24,WSW,253,20.0,-999.0,16,-99.99,,,0.00,weatherlink.com 1.10,2013-02-28 21:35:00,
2013-02-28 14:49:00,47.9,1.0,30.24,West,278,15.0,-999.0,14,-99.99,,,0.00,weatherlink.com 1.10,2013-02-28 21:49:00,
2013-02-28 15:04:00,47.9,2.0,30.25,WNW,295,21.0,-999.0,15,-99.99,,,0.00,weatherlink.com 1.10,2013-02-28 22:04:00,
2013-02-28 15:20:00,48.0,5.0,30.25,West,280,19.0,-999.0,17,-99.99,,,0.00,weatherlink.com 1.10,2013-02-28 22:20:00,
2013-02-28 15:35:00,47.4,4.0,30.27,West,266,13.0,-999.0,17,-99.99,,,0.00,weatherlink.com 1.10,2013-02-28 22:35:00,
2013-02-28 15:51:00,47.4,6.0,30.26,West,278,11.0,-999.0,18,-99.99,,,0.00,weatherlink.com 1.10,2013-02-28 22:51:00,
2013-02-28 16:06:00,47.0,5.0,30.27,WNW,290,11.0,-999.0,18,-99.99,,,0.00,weatherlink.com 1.10,2013-02-28 23:06:00,
2013-02-28 16:21:00,46.4,6.0,30.27,NW,309,18.0,-999.0,19,-99.99,,,0.00,weatherlink.com 1.10,2013-02-28 23:21:00,
2013-02-28 16:35:00,46.2,6.0,30.27,WNW,302,19.0,-999.0,19,-99.99,,,0.00,weatherlink.com 1.10,2013-02-28 23:35:00,
2013-02-28 16:50:00,45.7,7.0,30.28,WNW,282,15.0,-999.0,20,-99.99,,,0.00,weatherlink.com 1.10,2013-02-28 23:50:00,
2013-02-28 17:06:00,44.9,6.0,30.29,WNW,292,9.0,-999.0,20,-99.99,,,0.00,weatherlink.com 1.10,2013-03-01 00:06:00,
2013-02-28 17:21:00,44.5,7.0,30.32,West,273,11.0,-999.0,21,-99.99,,,0.00,weatherlink.com 1.10,2013-03-01 00:21:00,
2013-02-28 17:36:00,43.6,7.0,30.32,WNW,284,13.0,-999.0,22,-99.99,,,0.00,weatherlink.com 1.10,2013-03-01 00:36:00,
2013-02-28 17:51:00,42.8,8.0,30.33,WNW,290,9.0,-999.0,24,-99.99,,,0.00,weatherlink.com 1.10,2013-03-01 00:51:00,
2013-02-28 18:05:00,41.8,9.0,30.33,WNW,285,12.0,-999.0,26,-99.99,,,0.00,weatherlink.com 1.10,2013-03-01 01:05:00,
2013-02-28 18:21:00,40.8,9.0,30.34,WNW,295,9.0,-999.0,27,-99.99,,,0.00,weatherlink.com 1.10,2013-03-01 01:21:00,
2013-02-28 18:36:00,39.3,9.0,30.35,WNW,295,5.0,-999.0,28,-99.99,,,0.00,weatherlink.com 1.10,2013-03-01 01:36:00,
2013-02-28 18:51:00,39.1,8.0,30.37,WNW,292,5.0,-999.0,28,-99.99,,,0.00,weatherlink.com 1.10,2013-03-01 01:51:00,
2013-02-28 19:06:00,38.2,8.0,30.37,WNW,291,6.0,-999.0,29,-99.99,,,0.00,weatherlink.com 1.10,2013-03-01 02:06:00,
2013-02-28 19:21:00,37.8,10.0,30.32,WNW,292,7.0,-999.0,31,-99.99,,,0.00,weatherlink.com 1.10,2013-03-01 02:21:00,
2013-02-28 19:36:00,37.0,10.0,30.33,WNW,291,5.0,-999.0,32,-99.99,,,0.00,weatherlink.com 1.10,2013-03-01 02:36:00,
2013-02-28 19:51:00,36.6,10.0,30.34,WNW,288,5.0,-999.0,33,-99.99,,,0.00,weatherlink.com 1.10,2013-03-01 02:51:00,
2013-02-28 20:06:00,36.8,10.0,30.34,WNW,295,9.0,-999.0,33,-99.99,,,0.00,weatherlink.com 1.10,2013-03-01 03:06:00,
2013-02-28 20:21:00,36.8,10.0,30.29,WNW,289,9.0,-999.0,33,-99.99,,,0.00,weatherlink.com 1.10,2013-03-01 03:21:00,
2013-02-28 20:36:00,36.9,10.0,30.29,West,276,7.0,-999.0,33,-99.99,,,0.00,weatherlink.com 1.10,2013-03-01 03:36:00,
2013-02-28 20:51:00,36.8,10.0,30.29,WNW,295,11.0,-999.0,33,-99.99,,,0.00,weatherlink.com 1.10,2013-03-01 03:51:00,
2013-02-28 21:06:00,36.3,10.0,30.29,West,276,6.0,-999.0,34,-99.99,,,0.00,weatherlink.com 1.10,2013-03-01 04:06:00,
2013-02-28 21:21:00,35.3,10.0,30.28,West,276,5.0,-999.0,35,-99.99,,,0.00,weatherlink.com 1.10,2013-03-01 04:21:00,
2013-02-28 21:36:00,35.8,10.0,30.28,West,279,9.0,-999.0,34,-99.99,,,0.00,weatherlink.com 1.10,2013-03-01 04:36:00,
2013-02-28 21:51:00,36.2,10.0,30.28,West,281,4.0,-999.0,33,-99.99,,,0.00,weatherlink.com 1.10,2013-03-01 04:51:00,
2013-02-28 22:06:00,35.6,10.0,30.28,WNW,286,7.0,-999.0,34,-99.99,,,0.00,weatherlink.com 1.10,2013-03-01 05:06:00,
2013-02-28 22:21:00,35.6,10.0,30.25,West,276,5.0,-999.0,34,-99.99,,,0.00,weatherlink.com 1.10,2013-03-01 05:21:00,
2013-02-28 22:36:00,35.6,9.0,30.25,WNW,291,7.0,-999.0,33,-99.99,,,0.00,weatherlink.com 1.10,2013-03-01 05:36:00,
2013-02-28 22:51:00,35.6,9.0,30.26,WNW,291,7.0,-999.0,33,-99.99,,,0.00,weatherlink.com 1.10,2013-03-01 05:51:00,
2013-02-28 23:06:00,35.8,8.0,30.26,WNW,284,11.0,-999.0,32,-99.99,,,0.00,weatherlink.com 1.10,2013-03-01 06:06:00,
2013-02-28 23:21:00,35.8,8.0,30.26,West,278,5.0,-999.0,32,-99.99,,,0.00,weatherlink.com 1.10,2013-03-01 06:21:00,
2013-02-28 23:36:00,34.7,9.0,30.26,West,276,6.0,-999.0,34,-99.99,,,0.00,weatherlink.com 1.10,2013-03-01 06:36:00,
2013-02-28 23:51:00,33.5,9.0,30.27,West,276,9.0,-999.0,36,-99.99,,,0.00,weatherlink.com 1.10,2013-03-01 06:51:00,